CYUL

Montreal / Pierre Elliott Trudeau International Airport

Montréal, Quebec, Canada
METAR CYUL 171400Z 24006KT 6SM BR FEW004 BKN008 OVC032 01/00 A2966 RMK SF2SF4SC2 SLP046
Observed Flight Rules
Dec-17 @ 14:00 UTC (29 minutes ago) Instrument Flight Rules
Wind Visibility Clouds Conditions
240° at 6 knots 6 miles
  • Few at 400' AGL
  • Broken at 800' AGL
  • Overcast at 3,200' AGL
  • Mist
Temperatures Readings
Current 1°C / 34°F
Dewpoint 0°C / 32°F
Humidity 93%
Altimeter 29.66" Hg
Pressure 1004.6 hPa
Elevation 36
METAR CYUL 171400Z 24006KT 6SM BR FEW004 BKN008 OVC032 01/00 A2966 RMK SF2SF4SC2 SLP046
Observed Flight Rules
Dec-17 @ 14:00 UTC
(29 minutes ago)
IFR
Wind Visibility
240° at 6 knots 6 miles
Clouds
  • Few at 400' AGL
  • Broken at 800' AGL
  • Overcast at 3,200' AGL
Conditions
  • Mist
Temperature Dewpoint
1°C / 34°F 0°C / 32°F
Humidity Altimeter Pressure
93% 29.66" Hg 1004.6 hPa